Los Luceros, New Mexico
Current Conditions -  °F | °C
As of 9:15 PM on Sunday 25 Jan 2015 (Local Time) from KLAM Reporting Station
Clear Clear  
Wind Chill: 36°   Ceiling: Unl
Heat Index: 42°   Visibility: 10mi
Dew Point: 22°   Wind: 10mph
Humidity: 45%   Direction: 10°N
Pressure: 30.33"   Gusts: 17mph
Location:  36.1112°N, 106.046°W
Report Text: KLAM 260415Z AUTO 01009G15KT 10SM CLR 06/M06 A3033 RMK AO2 T00551057
Loading
Personal Weather Stations






























Interactive Weather Map New forecast layout! Learn more

10-Day Weather Forecast

Advertisements
Track Severe Weather on mobile